Time;durP1;ratioP1;P1;durP2;ratioP2;P2;SDS_P1;SDS_P2;PMS_P1;PMS_P2;Temp;Humidity;BMP_temperature;BMP_pressure;BME280_temperature;BME280_humidity;BME280_pressure;Samples;Min_cycle;Max_cycle;Signal;HPM_P1;HPM_P2
2022/04/24 00:02:22;;;;;;;30.33;17.65;;;;;;;5.15;94.09;95486.41;5063588;28;20458;-64
2022/04/24 00:04:50;;;;;;;30.73;18.05;;;;;;;5.32;93.52;95470.94;5059246;28;20505;-64
2022/04/24 00:07:16;;;;;;;27.73;16.38;;;;;;;5.28;92.24;95472.53;5052076;28;20508;-64
2022/04/24 00:09:43;;;;;;;26.98;16.48;;;;;;;5.19;92.58;95468.72;5059168;28;20059;-64
2022/04/24 00:12:15;;;;;;;26.48;16.25;;;;;;;5.28;92.91;95460.97;5063244;28;20086;-64
2022/04/24 00:14:46;;;;;;;31.48;17.98;;;;;;;5.11;93.50;95458.50;5065270;28;20055;-64
2022/04/24 00:17:15;;;;;;;29.08;16.08;;;;;;;5.14;93.74;95457.97;5058373;28;20056;-64
2022/04/24 00:19:42;;;;;;;27.48;16.02;;;;;;;5.39;93.39;95457.25;5048881;28;20045;-64
2022/04/24 00:22:09;;;;;;;23.80;14.68;;;;;;;5.31;91.65;95452.41;5056036;28;20116;-64
2022/04/24 00:24:36;;;;;;;24.30;14.18;;;;;;;5.32;92.44;95443.28;5047794;28;20097;-64
2022/04/24 00:27:03;;;;;;;27.40;16.02;;;;;;;5.32;92.61;95444.09;5060561;28;20091;-64
2022/04/24 00:29:30;;;;;;;25.48;14.90;;;;;;;5.34;92.79;95433.88;5046815;28;20060;-65
2022/04/24 00:31:57;;;;;;;25.13;15.98;;;;;;;5.34;92.32;95433.88;5064193;28;20049;-64
2022/04/24 00:34:23;;;;;;;29.67;16.23;;;;;;;5.39;92.53;95433.09;5063811;28;20116;-64
2022/04/24 00:36:50;;;;;;;24.85;15.23;;;;;;;5.47;92.59;95437.94;5059829;28;20044;-64
2022/04/24 00:39:16;;;;;;;23.88;15.05;;;;;;;5.66;91.97;95432.03;5061937;28;20702;-64
2022/04/24 00:41:45;;;;;;;25.50;14.98;;;;;;;5.80;92.32;95426.94;5047089;28;20048;-64
2022/04/24 00:44:11;;;;;;;23.90;15.27;;;;;;;5.76;91.81;95420.50;5045196;28;20132;-64
2022/04/24 00:47:01;;;;;;;22.85;14.75;;;;;;;5.89;92.46;95426.41;5050948;28;20419;-64
2022/04/24 00:49:29;;;;;;;24.13;15.15;;;;;;;5.97;91.16;95420.47;5060245;28;20046;-64
2022/04/24 00:51:56;;;;;;;23.08;14.93;;;;;;;6.06;91.26;95418.06;5055487;28;20048;-64
2022/04/24 00:54:23;;;;;;;21.65;14.57;;;;;;;5.98;91.04;95422.88;5045059;28;20828;-64
2022/04/24 00:56:49;;;;;;;22.60;14.00;;;;;;;6.19;90.96;95425.56;5050986;28;20527;-64
2022/04/24 00:59:16;;;;;;;23.42;15.15;;;;;;;6.21;90.66;95426.09;5051760;28;20533;-64
2022/04/24 01:01:43;;;;;;;23.25;14.48;;;;;;;6.21;91.11;95426.09;5048791;28;20048;-64
2022/04/24 01:04:12;;;;;;;24.95;16.00;;;;;;;6.22;91.67;95411.59;5050812;28;20052;-64
2022/04/24 01:06:43;;;;;;;21.17;14.32;;;;;;;6.42;90.47;95415.31;5044674;28;20056;-64
2022/04/24 01:09:18;;;;;;;23.90;13.75;;;;;;;6.49;90.26;95423.09;5050690;28;20041;-64
2022/04/24 01:11:46;;;;;;;22.58;14.57;;;;;;;6.40;90.45;95422.81;5051910;28;20067;-64
2022/04/24 01:14:16;;;;;;;21.77;14.32;;;;;;;6.42;90.79;95417.19;5059561;28;20097;-64
2022/04/24 01:16:44;;;;;;;24.10;15.68;;;;;;;6.44;90.73;95413.13;5062757;28;20052;-64
2022/04/24 01:19:11;;;;;;;23.02;14.07;;;;;;;6.51;90.75;95410.16;5073197;28;20523;-65
2022/04/24 01:21:40;;;;;;;21.58;12.88;;;;;;;6.54;90.71;95423.06;5067074;28;20048;-64
2022/04/24 01:24:07;;;;;;;23.38;14.38;;;;;;;6.54;90.75;95406.94;5067290;28;20071;-64
2022/04/24 01:26:35;;;;;;;21.95;13.32;;;;;;;6.67;90.31;95394.75;5054673;28;20052;-64
2022/04/24 01:29:04;;;;;;;19.42;13.93;;;;;;;6.67;90.25;95404.72;5057811;28;20404;-64
2022/04/24 01:31:32;;;;;;;20.25;12.85;;;;;;;6.55;90.84;95413.09;5053537;28;20412;-64
2022/04/24 01:33:59;;;;;;;19.83;12.70;;;;;;;6.60;91.47;95415.78;5065754;28;20549;-64
2022/04/24 01:36:26;;;;;;;20.80;13.65;;;;;;;6.66;90.87;95424.66;5067680;28;20178;-64
2022/04/24 01:38:52;;;;;;;20.20;13.35;;;;;;;6.81;91.53;95405.72;5066316;28;20177;-64
2022/04/24 01:41:19;;;;;;;19.55;12.00;;;;;;;6.95;90.17;95411.31;5054761;28;20102;-64
2022/04/24 01:43:47;;;;;;;21.10;13.35;;;;;;;6.88;89.50;95421.56;5064653;28;20668;-64
2022/04/24 01:46:13;;;;;;;18.85;12.77;;;;;;;6.70;91.13;95415.72;5065236;28;20420;-64
2022/04/24 01:48:40;;;;;;;20.38;12.30;;;;;;;6.74;91.16;95429.44;5065899;28;20044;-65
2022/04/24 01:51:08;;;;;;;21.30;14.10;;;;;;;6.75;91.03;95431.06;5068906;28;20040;-64
2022/04/24 01:53:36;;;;;;;20.58;13.45;;;;;;;6.74;91.11;95440.19;5066722;28;20103;-64
2022/04/24 01:56:04;;;;;;;19.23;11.82;;;;;;;6.85;91.38;95436.38;5054144;28;20044;-64
2022/04/24 01:58:32;;;;;;;20.88;13.63;;;;;;;7.01;90.72;95423.66;5067398;28;20041;-64
2022/04/24 02:00:59;;;;;;;20.88;14.23;;;;;;;6.96;90.47;95441.72;5065504;28;20044;-65
2022/04/24 02:03:29;;;;;;;19.27;12.23;;;;;;;6.83;91.35;95449.31;5065402;28;20131;-64
2022/04/24 02:05:56;;;;;;;23.52;14.00;;;;;;;6.89;91.26;95458.16;5055194;28;20049;-64
2022/04/24 02:08:23;;;;;;;20.17;13.10;;;;;;;7.01;90.68;95474.78;5046812;28;20045;-64
2022/04/24 02:10:51;;;;;;;20.25;13.25;;;;;;;7.04;90.62;95486.88;5049819;28;20091;-64
2022/04/24 02:13:17;;;;;;;19.98;12.88;;;;;;;7.15;90.43;95498.44;5057828;28;20451;-65
2022/04/24 02:15:45;;;;;;;20.17;12.75;;;;;;;7.31;89.87;95485.69;5064438;28;20523;-64
2022/04/24 02:18:12;;;;;;;19.20;12.57;;;;;;;7.47;89.06;95494.47;5065480;28;20075;-64
2022/04/24 02:20:38;;;;;;;19.17;12.35;;;;;;;7.52;89.88;95488.28;5056468;28;20045;-65
2022/04/24 02:23:05;;;;;;;19.38;12.90;;;;;;;7.35;90.99;95494.00;5046126;28;20041;-64
2022/04/24 02:25:32;;;;;;;17.60;12.57;;;;;;;7.28;91.49;95503.22;5061353;28;20562;-64
2022/04/24 02:27:59;;;;;;;21.70;13.68;;;;;;;7.31;92.73;95501.84;5045858;28;20055;-65
2022/04/24 02:30:28;;;;;;;22.63;14.90;;;;;;;7.37;91.60;95499.94;5055910;28;20766;-65
2022/04/24 02:32:59;;;;;;;20.98;13.27;;;;;;;7.41;91.90;95511.75;5054655;28;20685;-65
2022/04/24 02:35:30;;;;;;;18.33;12.07;;;;;;;7.57;91.32;95503.56;5066086;28;20062;-65
2022/04/24 02:37:56;;;;;;;21.37;13.27;;;;;;;7.64;90.90;95507.59;5065830;28;20135;-64
2022/04/24 02:40:23;;;;;;;21.55;13.75;;;;;;;7.76;91.75;95496.47;5060043;28;20102;-64
2022/04/24 02:42:51;;;;;;;18.75;12.75;;;;;;;7.64;92.47;95502.22;5046364;28;20044;-65
2022/04/24 02:45:19;;;;;;;21.05;12.90;;;;;;;7.66;92.28;95494.63;5046653;28;20041;-64
2022/04/24 02:47:46;;;;;;;21.45;12.77;;;;;;;7.63;93.14;95494.41;5055108;28;20572;-64
2022/04/24 02:50:14;;;;;;;24.13;14.07;;;;;;;7.69;95.02;95495.97;5074414;28;20408;-65
2022/04/24 02:52:54;;;;;;;22.65;14.65;;;;;;;7.76;94.85;95496.47;5044413;28;20040;-64
2022/04/24 02:55:22;;;;;;;23.13;14.18;;;;;;;7.70;93.29;95486.78;5061667;28;20094;-65
2022/04/24 02:57:49;;;;;;;20.73;13.65;;;;;;;7.67;93.73;95490.84;5065910;28;20561;-64
2022/04/24 03:00:39;;;;;;;19.83;12.50;;;;;;;7.45;94.74;95490.47;5052261;28;20037;-64
2022/04/24 03:03:09;;;;;;;22.00;14.10;;;;;;;7.41;95.80;95487.53;5054354;28;20068;-65
2022/04/24 03:05:36;;;;;;;23.48;13.38;;;;;;;7.41;96.45;95490.22;5045121;28;20041;-65
2022/04/24 03:08:03;;;;;;;22.00;14.57;;;;;;;7.36;96.64;95487.53;5047779;28;20523;-65
2022/04/24 03:10:29;;;;;;;24.20;14.30;;;;;;;7.29;96.76;95483.28;5055956;28;20048;-65
2022/04/24 03:12:56;;;;;;;23.85;15.70;;;;;;;7.23;97.30;95495.13;5061986;28;20086;-64
2022/04/24 03:15:22;;;;;;;26.67;16.73;;;;;;;7.15;98.26;95495.75;5065561;28;20044;-64
2022/04/24 03:17:50;;;;;;;24.98;16.20;;;;;;;6.99;98.84;95489.59;5064277;28;20060;-64
2022/04/24 03:20:18;;;;;;;29.08;16.20;;;;;;;7.18;100.00;95494.38;5060997;28;20040;-65
2022/04/24 03:22:44;;;;;;;31.08;17.75;;;;;;;7.10;99.42;95491.16;5045390;28;20040;-64
2022/04/24 03:25:11;;;;;;;27.08;16.05;;;;;;;7.04;99.34;95492.25;5046360;28;20509;-65
2022/04/24 03:27:38;;;;;;;25.35;15.68;;;;;;;7.05;99.15;95493.88;5063547;28;20052;-65
2022/04/24 03:30:07;;;;;;;27.67;15.25;;;;;;;7.05;99.22;95485.81;5061867;28;20044;-64
2022/04/24 03:32:34;;;;;;;24.58;15.40;;;;;;;7.00;99.10;95483.94;5056932;28;20037;-65
2022/04/24 03:35:03;;;;;;;29.10;16.42;;;;;;;7.01;100.00;95485.53;5065208;28;20052;-64
2022/04/24 03:37:30;;;;;;;27.27;15.88;;;;;;;6.87;100.00;95495.28;5065120;28;20064;-65
2022/04/24 03:39:57;;;;;;;26.80;15.93;;;;;;;6.92;100.00;95492.59;5063206;28;20044;-64
2022/04/24 03:42:25;;;;;;;28.08;16.35;;;;;;;6.89;99.65;95496.63;5052813;28;20047;-64
2022/04/24 03:44:56;;;;;;;25.52;15.73;;;;;;;6.88;99.50;95497.72;5047578;28;20128;-64
2022/04/24 03:47:23;;;;;;;25.83;15.48;;;;;;;7.04;99.27;95500.34;5062318;28;20044;-65
2022/04/24 03:49:50;;;;;;;25.58;15.80;;;;;;;7.17;99.17;95507.03;5068496;28;20052;-64
2022/04/24 03:52:16;;;;;;;24.42;15.70;;;;;;;7.28;99.85;95500.50;5044161;28;20052;-64
2022/04/24 03:54:43;;;;;;;25.15;15.65;;;;;;;7.29;99.04;95509.38;5065780;28;20053;-64
2022/04/24 03:57:11;;;;;;;24.45;14.82;;;;;;;6.97;98.71;95505.22;5065536;28;20052;-64
2022/04/24 03:59:37;;;;;;;28.75;16.30;;;;;;;6.91;99.70;95509.81;5063128;28;20044;-64
2022/04/24 04:02:04;;;;;;;26.30;16.67;;;;;;;6.99;100.00;95506.56;5063495;28;20049;-65
2022/04/24 04:04:31;;;;;;;34.28;16.85;;;;;;;7.15;100.00;95511.88;5059410;28;20048;-64
2022/04/24 04:06:58;;;;;;;27.35;16.75;;;;;;;7.11;99.63;95510.81;5062400;28;20480;-64
2022/04/24 04:09:25;;;;;;;29.60;16.90;;;;;;;7.15;100.00;95509.19;5065254;28;20399;-64
2022/04/24 04:11:52;;;;;;;25.50;15.98;;;;;;;7.24;99.94;95512.09;5062497;28;20503;-65
2022/04/24 04:14:18;;;;;;;26.27;16.58;;;;;;;7.18;99.70;95519.38;5047118;28;20041;-64
2022/04/24 04:16:45;;;;;;;27.55;15.90;;;;;;;7.14;99.63;95510.25;5057720;28;20132;-65
2022/04/24 04:19:12;;;;;;;29.00;16.02;;;;;;;7.09;99.75;95512.97;5047027;28;20078;-64
2022/04/24 04:21:38;;;;;;;28.50;16.92;;;;;;;7.12;100.00;95510.53;5060634;28;20040;-64
2022/04/24 04:24:06;;;;;;;31.27;17.67;;;;;;;7.08;100.00;95512.16;5047623;28;20683;-64
2022/04/24 04:26:32;;;;;;;27.92;17.40;;;;;;;7.17;100.00;95520.47;5048299;28;20500;-63
2022/04/24 04:28:59;;;;;;;25.42;16.50;;;;;;;7.25;100.00;95519.09;5047701;28;20044;-64
2022/04/24 04:31:26;;;;;;;27.23;17.60;;;;;;;7.13;99.94;95519.41;5058782;28;20052;-64
2022/04/24 04:33:52;;;;;;;26.45;16.17;;;;;;;7.12;100.00;95515.91;5063466;28;20068;-64
2022/04/24 04:36:19;;;;;;;26.88;16.80;;;;;;;7.16;100.00;95529.63;5064124;28;20037;-64
2022/04/24 04:38:46;;;;;;;29.33;19.08;;;;;;;7.04;100.00;95529.94;5062823;28;20526;-64
2022/04/24 04:41:12;;;;;;;33.28;19.42;;;;;;;7.01;100.00;95539.38;5053175;28;20049;-64
2022/04/24 04:43:39;;;;;;;33.15;18.50;;;;;;;7.01;100.00;95547.44;5047069;28;20067;-65
2022/04/24 04:46:05;;;;;;;38.70;20.52;;;;;;;6.86;100.00;95569.81;5051807;28;20048;-65
2022/04/24 04:48:33;;;;;;;32.92;21.02;;;;;;;6.88;100.00;95574.91;5073140;28;20044;-64
2022/04/24 04:50:59;;;;;;;33.88;19.45;;;;;;;6.99;100.00;95575.69;5074881;28;20044;-64
2022/04/24 04:53:26;;;;;;;36.88;20.35;;;;;;;7.11;100.00;95576.22;5064937;28;20527;-64
2022/04/24 04:55:53;;;;;;;26.42;15.30;;;;;;;7.12;98.39;95577.81;5063681;28;20617;-64
2022/04/24 04:58:19;;;;;;;17.23;10.30;;;;;;;7.00;97.45;95591.56;5048070;28;20041;-64
2022/04/24 05:00:46;;;;;;;9.13;4.68;;;;;;;6.78;96.94;95588.41;5051703;28;20055;-64
2022/04/24 05:03:12;;;;;;;5.60;1.98;;;;;;;6.60;95.33;95598.66;5057652;28;20040;-64
2022/04/24 05:05:39;;;;;;;5.90;1.70;;;;;;;6.36;95.24;95596.50;5055603;28;20057;-64
2022/04/24 05:08:06;;;;;;;2.65;0.95;;;;;;;6.21;95.28;95599.97;5064795;28;20048;-64
2022/04/24 05:10:32;;;;;;;2.58;0.82;;;;;;;6.07;96.28;95599.69;5057994;28;20041;-64
2022/04/24 05:12:59;;;;;;;2.28;0.68;;;;;;;6.04;95.10;95597.56;5057442;28;20040;-63
2022/04/24 05:15:26;;;;;;;2.55;0.50;;;;;;;6.04;95.42;95602.94;5058861;28;20041;-64
2022/04/24 05:17:52;;;;;;;0.98;0.30;;;;;;;5.96;94.26;95606.91;5059491;28;20111;-64
2022/04/24 05:20:20;;;;;;;0.45;0.30;;;;;;;5.92;93.81;95617.38;5049463;28;20036;-64
2022/04/24 05:22:46;;;;;;;0.15;0.15;;;;;;;5.90;93.47;95624.88;5056506;28;20230;-63
2022/04/24 05:25:14;;;;;;;1.00;0.30;;;;;;;5.79;93.86;95618.66;5055332;28;20040;-63
2022/04/24 05:27:41;;;;;;;0.43;0.10;;;;;;;5.73;94.05;95617.88;5063196;28;20118;-63
2022/04/24 05:30:08;;;;;;;3.28;0.52;;;;;;;5.67;94.30;95626.97;5064166;28;20067;-63
2022/04/24 05:32:40;;;;;;;0.35;0.13;;;;;;;5.68;94.24;95617.03;5056599;28;20063;-65
2022/04/24 05:35:07;;;;;;;;;;;;;;;5.60;93.34;95629.91;5051091;28;20041;-64
2022/04/24 05:37:34;;;;;;;0.17;0.10;;;;;;;5.64;93.38;95635.53;5058149;28;19924;-63
2022/04/24 05:40:02;;;;;;;0.30;0.20;;;;;;;5.63;94.12;95635.84;5054160;28;20047;-63
2022/04/24 05:42:28;;;;;;;0.43;0.15;;;;;;;5.55;94.00;95650.53;5053969;28;20117;-64
2022/04/24 05:44:58;;;;;;;0.20;0.20;;;;;;;5.49;95.40;95649.72;5071891;28;20045;-64
2022/04/24 05:47:25;;;;;;;2.28;0.43;;;;;;;5.55;94.16;95642.50;5060719;28;20048;-64
2022/04/24 05:49:52;;;;;;;0.80;0.32;;;;;;;5.58;95.26;95650.84;5070647;28;20053;-64
2022/04/24 05:52:18;;;;;;;0.30;0.20;;;;;;;5.58;94.21;95642.78;5074269;28;20713;-64
2022/04/24 05:54:45;;;;;;;0.10;0.10;;;;;;;5.68;92.35;95642.00;5061345;28;20060;-64
2022/04/24 05:57:12;;;;;;;0.47;0.20;;;;;;;5.76;92.48;95650.63;5054678;28;20044;-64
2022/04/24 05:59:38;;;;;;;0.30;0.20;;;;;;;5.88;90.33;95653.06;5062506;28;20044;-64
2022/04/24 06:02:05;;;;;;;0.43;0.10;;;;;;;5.86;91.71;95646.09;5065293;28;20044;-64
2022/04/24 06:04:31;;;;;;;0.63;0.20;;;;;;;5.76;92.70;95654.13;5060197;28;20405;-64
2022/04/24 06:06:58;;;;;;;0.10;0.10;;;;;;;5.75;92.34;95649.81;5044406;28;20049;-64
2022/04/24 06:09:24;;;;;;;0.10;0.10;;;;;;;5.63;92.93;95649.25;5056991;28;20122;-64
2022/04/24 06:11:58;;;;;;;0.32;0.10;;;;;;;5.58;94.69;95650.03;5046154;28;20060;-64
2022/04/24 06:14:25;;;;;;;0.35;0.15;;;;;;;5.59;94.53;95655.16;5065139;28;20037;-64
2022/04/24 06:16:52;;;;;;;0.10;0.10;;;;;;;5.69;92.94;95657.06;5056146;28;20040;-64
2022/04/24 06:19:19;;;;;;;1.27;0.20;;;;;;;5.66;94.59;95662.97;5054003;28;20040;-64
2022/04/24 06:21:46;;;;;;;0.10;0.10;;;;;;;5.78;93.38;95660.03;5058038;28;20049;-64
2022/04/24 06:24:15;;;;;;;0.10;0.10;;;;;;;5.79;94.04;95658.16;5057624;28;20112;-64
2022/04/24 06:26:44;;;;;;;0.20;0.20;;;;;;;5.75;94.73;95652.50;5056981;28;20459;-64
2022/04/24 06:29:11;;;;;;;0.17;0.10;;;;;;;5.82;93.50;95655.75;5054256;28;20053;-65
2022/04/24 06:31:37;;;;;;;0.15;0.10;;;;;;;5.93;92.78;95647.75;5062505;28;20045;-64
2022/04/24 06:34:04;;;;;;;0.20;0.20;;;;;;;5.85;93.64;95649.03;5050970;28;20514;-46
2022/04/24 06:36:31;;;;;;;0.40;0.20;;;;;;;5.86;94.47;95653.34;5061685;28;20048;-48
2022/04/24 06:39:00;;;;;;;1.83;0.50;;;;;;;5.84;93.98;95659.00;5047378;28;20478;-50
2022/04/24 06:41:26;;;;;;;1.50;0.28;;;;;;;5.97;94.18;95656.88;5053199;28;20060;-64
2022/04/24 06:43:53;;;;;;;0.75;0.40;;;;;;;6.02;93.83;95659.59;5054830;28;20087;-67
2022/04/24 06:46:20;;;;;;;1.58;0.63;;;;;;;6.01;94.30;95657.16;5056597;28;20613;-68
2022/04/24 06:48:46;;;;;;;2.17;0.50;;;;;;;5.96;95.41;95661.44;5056287;28;20044;-66
2022/04/24 06:51:13;;;;;;;0.77;0.40;;;;;;;5.98;94.94;95655.81;5055327;28;20055;-66
2022/04/24 06:53:40;;;;;;;1.05;0.55;;;;;;;5.95;95.87;95657.16;5051367;28;20040;-62
2022/04/24 06:56:06;;;;;;;1.30;0.38;;;;;;;5.97;96.27;95649.63;5050026;28;20040;-62
2022/04/24 06:58:33;;;;;;;1.20;0.50;;;;;;;6.02;95.73;95653.38;5058121;28;20427;-62
2022/04/24 07:01:06;;;;;;;0.95;0.30;;;;;;;6.09;95.52;95656.66;5053183;28;20052;-62
2022/04/24 07:03:34;;;;;;;0.98;0.40;;;;;;;6.15;94.95;95652.13;5057495;28;20040;-62
2022/04/24 07:06:00;;;;;;;2.03;0.60;;;;;;;6.13;95.56;95659.63;5051505;28;20105;-62
2022/04/24 07:08:29;;;;;;;1.33;0.50;;;;;;;6.13;95.90;95647.00;5048553;28;20076;-62
2022/04/24 07:10:56;;;;;;;0.88;0.40;;;;;;;6.03;96.95;95658.53;5052329;28;20091;-62
2022/04/24 07:13:22;;;;;;;0.63;0.20;;;;;;;6.06;96.67;95659.88;5055954;28;20067;-62
2022/04/24 07:15:50;;;;;;;0.43;0.20;;;;;;;6.21;94.39;95665.28;5060764;28;20048;-61
2022/04/24 07:18:18;;;;;;;1.27;0.20;;;;;;;6.14;96.67;95658.53;5054554;28;20057;-62
2022/04/24 07:20:44;;;;;;;0.52;0.30;;;;;;;6.18;95.66;95657.75;5060907;28;20053;-62
2022/04/24 07:23:11;;;;;;;1.58;0.30;;;;;;;6.09;97.48;95665.53;5056735;28;20086;-62
2022/04/24 07:25:43;;;;;;;0.20;0.20;;;;;;;6.16;96.32;95667.94;5070832;28;20594;-62
2022/04/24 07:28:13;;;;;;;1.02;0.40;;;;;;;6.19;96.54;95664.75;5061596;28;20069;-66
2022/04/24 07:30:40;;;;;;;1.73;0.50;;;;;;;6.15;97.85;95668.25;5056957;28;20048;-67
2022/04/24 07:33:07;;;;;;;2.08;0.55;;;;;;;6.15;97.73;95676.31;5060267;28;20040;-62
2022/04/24 07:35:36;;;;;;;1.55;0.50;;;;;;;6.17;97.55;95671.47;5048636;28;20138;-62
2022/04/24 07:38:03;;;;;;;1.05;0.40;;;;;;;6.21;98.00;95677.91;5062103;28;20110;-62
2022/04/24 07:40:33;;;;;;;1.08;0.50;;;;;;;6.14;98.07;95683.53;5053649;28;20048;-63
2022/04/24 07:43:05;;;;;;;2.08;0.63;;;;;;;6.19;98.61;95686.25;5054303;28;20052;-63
2022/04/24 07:45:37;;;;;;;1.55;0.35;;;;;;;6.30;97.78;95694.34;5048438;28;20050;-64
2022/04/24 07:48:04;;;;;;;;;;;;;;;6.24;97.92;95693.53;5056627;28;20471;-63
2022/04/24 07:50:36;;;;;;;2.45;0.90;;;;;;;6.24;98.77;95707.75;5051101;28;19934;-64
2022/04/24 07:53:04;;;;;;;1.58;0.52;;;;;;;6.25;97.64;95708.56;5058124;28;20452;-63
2022/04/24 07:55:31;;;;;;;1.08;0.55;;;;;;;6.34;97.38;95709.66;5055841;28;20051;-63
2022/04/24 07:57:58;;;;;;;2.05;0.80;;;;;;;6.45;96.52;95709.69;5058468;28;20044;-63
2022/04/24 08:00:26;;;;;;;3.10;0.98;;;;;;;6.51;96.51;95711.31;5054017;28;20139;-63
2022/04/24 08:03:00;;;;;;;2.55;0.90;;;;;;;6.60;95.60;95715.06;5060109;28;20530;-62
2022/04/24 08:05:37;;;;;;;0.68;0.40;;;;;;;6.59;95.11;95710.78;5048189;28;20041;-64
2022/04/24 08:08:09;;;;;;;0.82;0.40;;;;;;;6.58;96.27;95703.78;5050522;28;20037;-63
2022/04/24 08:10:39;;;;;;;1.75;0.90;;;;;;;6.61;96.22;95699.75;5055056;28;20478;-63
2022/04/24 08:13:07;;;;;;;2.45;0.75;;;;;;;6.62;96.28;95704.06;5051087;28;20053;-63
2022/04/24 08:15:41;;;;;;;4.20;0.80;;;;;;;6.63;96.75;95698.41;5055961;28;20068;-63
2022/04/24 08:18:09;;;;;;;0.65;0.50;;;;;;;6.76;95.60;95707.84;5054134;28;20157;-63
2022/04/24 08:20:36;;;;;;;1.40;0.70;;;;;;;6.80;96.05;95705.41;5062632;28;20054;-63
2022/04/24 08:23:04;;;;;;;2.25;0.75;;;;;;;6.64;96.80;95705.41;5057918;28;20041;-63
2022/04/24 08:25:36;;;;;;;0.98;0.40;;;;;;;6.56;96.46;95703.22;5063058;28;20037;-63
2022/04/24 08:28:08;;;;;;;1.80;0.63;;;;;;;6.62;96.12;95709.44;5054271;28;20056;-63
2022/04/24 08:30:37;;;;;;;0.40;0.40;;;;;;;6.70;95.72;95703.53;5063055;28;20531;-64
2022/04/24 08:33:05;;;;;;;1.42;0.60;;;;;;;6.76;96.67;95710.53;5062405;28;20119;-63
2022/04/24 08:35:31;;;;;;;2.25;0.90;;;;;;;6.82;96.21;95719.38;5066432;28;20530;-63
2022/04/24 08:37:58;;;;;;;1.10;0.43;;;;;;;6.83;95.85;95712.97;5066992;28;20141;-63
2022/04/24 08:40:25;;;;;;;0.40;0.30;;;;;;;6.82;94.42;95719.38;5065340;28;20062;-63
2022/04/24 08:42:54;;;;;;;0.73;0.22;;;;;;;6.86;95.09;95725.84;5063686;28;20047;-63
2022/04/24 08:45:25;;;;;;;0.90;0.28;;;;;;;6.86;95.73;95723.16;5058347;28;20045;-63
2022/04/24 08:47:51;;;;;;;0.30;0.20;;;;;;;6.81;94.61;95725.84;5065228;28;20044;-63
2022/04/24 08:50:18;;;;;;;0.50;0.32;;;;;;;6.87;94.94;95727.50;5066984;28;20048;-63
2022/04/24 08:52:47;;;;;;;0.80;0.40;;;;;;;6.93;94.83;95722.88;5063727;28;20044;-63
2022/04/24 08:55:15;;;;;;;0.65;0.30;;;;;;;6.93;95.34;95722.88;5066049;28;20036;-63
2022/04/24 08:57:42;;;;;;;1.10;0.45;;;;;;;6.95;94.92;95722.63;5071632;28;20040;-63
2022/04/24 09:00:09;;;;;;;1.60;0.38;;;;;;;6.99;94.90;95729.91;5055749;28;20040;-63
2022/04/24 09:02:51;;;;;;;0.98;0.65;;;;;;;6.95;95.33;95717.25;5057955;28;20072;-63
2022/04/24 09:05:21;;;;;;;3.53;1.30;;;;;;;6.89;95.81;95719.94;5054655;28;20040;-63
2022/04/24 09:07:48;;;;;;;1.30;0.70;;;;;;;6.95;95.94;95720.75;5059077;28;20045;-63
2022/04/24 09:10:55;;;;;;;0.50;0.50;;;;;;;6.88;96.10;95723.72;5062364;28;20123;-63
2022/04/24 09:16:19;;;;;;;1.63;0.40;;;;;;;6.95;95.87;95733.38;5052002;28;20049;-63
2022/04/24 09:18:46;;;;;;;0.60;0.45;;;;;;;6.96;95.61;95730.44;5057329;28;20117;-63
2022/04/24 09:21:13;;;;;;;0.93;0.55;;;;;;;6.96;95.96;95737.72;5064130;28;20055;-63
2022/04/24 09:23:43;;;;;;;0.68;0.43;;;;;;;6.97;95.75;95742.81;5057823;28;20054;-63
2022/04/24 09:26:16;;;;;;;1.75;0.57;;;;;;;7.06;95.84;95744.97;5054178;28;20124;-63
2022/04/24 09:28:44;;;;;;;0.77;0.57;;;;;;;7.05;96.19;95740.66;5067474;28;20055;-63
2022/04/24 09:31:11;;;;;;;0.82;0.40;;;;;;;7.10;95.62;95746.03;5060361;28;20532;-64
2022/04/24 09:33:39;;;;;;;2.38;0.70;;;;;;;7.06;95.33;95747.66;5052152;28;20040;-64
2022/04/24 09:36:07;;;;;;;1.55;0.70;;;;;;;7.18;96.83;95753.56;5061905;28;20150;-64
2022/04/24 09:38:44;;;;;;;2.63;1.10;;;;;;;7.25;97.38;95759.50;5060917;28;20037;-64
2022/04/24 09:41:22;;;;;;;2.55;1.30;;;;;;;7.31;96.95;95763.00;5062609;28;20052;-64
2022/04/24 09:43:50;;;;;;;3.35;1.33;;;;;;;7.25;97.08;95767.56;5062957;28;20032;-64
2022/04/24 09:46:27;;;;;;;5.32;1.77;;;;;;;7.36;97.85;95760.28;5060273;28;20056;-64
2022/04/24 09:48:58;;;;;;;3.80;1.30;;;;;;;7.32;97.15;95771.88;5074815;28;20513;-63
2022/04/24 09:51:26;;;;;;;2.72;1.50;;;;;;;7.35;97.22;95774.84;5051746;28;20094;-64
2022/04/24 09:54:02;;;;;;;2.30;0.77;;;;;;;7.25;96.29;95775.66;5060340;28;20064;-64
2022/04/24 09:56:29;;;;;;;2.05;0.82;;;;;;;7.19;97.11;95781.31;5056268;28;20058;-64
2022/04/24 09:58:57;;;;;;;1.92;0.80;;;;;;;7.18;97.67;95785.88;5056037;28;20051;-63
2022/04/24 10:01:25;;;;;;;2.35;1.00;;;;;;;7.33;98.42;95790.44;5059210;28;20040;-64
2022/04/24 10:03:54;;;;;;;2.08;0.85;;;;;;;7.37;96.44;95793.41;5053899;28;20161;-63
2022/04/24 10:06:22;;;;;;;2.28;0.90;;;;;;;7.40;97.13;95800.94;5064732;28;20531;-64
2022/04/24 10:08:51;;;;;;;2.00;1.05;;;;;;;7.46;97.23;95797.19;5055882;28;20043;-64
2022/04/24 10:11:19;;;;;;;2.97;1.13;;;;;;;7.38;97.41;95803.91;5056358;28;20103;-64
2022/04/24 10:13:48;;;;;;;2.85;1.20;;;;;;;7.49;98.08;95801.22;5062067;28;20052;-64
2022/04/24 10:16:39;;;;;;;3.22;1.20;;;;;;;7.54;98.29;95804.72;5052303;28;20699;-64
2022/04/24 10:19:42;;;;;;;2.88;1.23;;;;;;;7.54;97.17;95809.28;5065573;28;20890;-64
2022/04/24 10:22:24;;;;;;;3.08;1.45;;;;;;;7.51;97.25;95807.13;5045728;28;20048;-64
2022/04/24 10:25:02;;;;;;;3.88;1.77;;;;;;;7.46;97.77;95801.75;5059366;28;20040;-64
2022/04/24 10:27:37;;;;;;;4.25;1.60;;;;;;;7.57;97.66;95806.06;5069005;28;20048;-64
2022/04/24 10:30:05;;;;;;;2.65;1.20;;;;;;;7.64;96.55;95811.97;5062353;28;20055;-64
2022/04/24 10:32:32;;;;;;;3.42;1.30;;;;;;;7.61;96.50;95811.69;5063622;28;20038;-64
2022/04/24 10:34:59;;;;;;;3.03;1.42;;;;;;;7.62;96.22;95807.91;5049906;28;20120;-64
2022/04/24 10:37:27;;;;;;;2.72;1.20;;;;;;;7.61;96.00;95811.69;5064506;28;20064;-64
2022/04/24 10:39:58;;;;;;;2.90;1.33;;;;;;;7.60;95.53;95808.22;5057047;28;20041;-63
2022/04/24 10:42:32;;;;;;;1.83;0.98;;;;;;;7.87;95.21;95815.16;5062863;28;20043;-64
2022/04/24 10:45:12;;;;;;;2.03;0.80;;;;;;;7.96;94.57;95814.63;5056050;28;20049;-64
2022/04/24 10:47:52;;;;;;;4.15;1.48;;;;;;;7.73;95.21;95808.72;5059229;28;20045;-64
2022/04/24 10:50:20;;;;;;;2.30;1.00;;;;;;;7.73;94.87;95811.41;5067180;28;20055;-64
2022/04/24 10:52:52;;;;;;;4.28;1.60;;;;;;;7.86;95.42;95816.25;5044029;28;20049;-64
2022/04/24 10:55:24;;;;;;;2.03;0.90;;;;;;;7.87;96.47;95814.34;5052079;28;20162;-64
2022/04/24 10:58:00;;;;;;;1.50;0.82;;;;;;;7.77;95.55;95816.00;5046347;28;20044;-64
2022/04/24 11:00:35;;;;;;;4.07;1.30;;;;;;;7.80;96.24;95817.31;5053819;28;20047;-64
2022/04/24 11:03:20;;;;;;;2.83;1.10;;;;;;;7.89;95.84;95817.59;5050172;28;20056;-64
2022/04/24 11:05:47;;;;;;;2.63;0.82;;;;;;;7.77;95.81;95812.47;5052545;28;20048;-64
2022/04/24 11:08:20;;;;;;;2.15;0.90;;;;;;;7.76;96.12;95821.66;5061305;28;20781;-64
2022/04/24 11:10:49;;;;;;;1.40;0.75;;;;;;;7.83;95.94;95824.88;5049278;28;20676;-64
2022/04/24 11:13:18;;;;;;;1.90;0.95;;;;;;;7.85;95.60;95828.09;5057668;28;20040;-64
2022/04/24 11:15:49;;;;;;;1.95;0.90;;;;;;;8.01;94.36;95830.75;5060029;28;20056;-64
2022/04/24 11:18:26;;;;;;;1.67;0.80;;;;;;;7.96;94.83;95826.19;5066984;28;20526;-64
2022/04/24 11:20:58;;;;;;;1.98;0.80;;;;;;;8.01;94.13;95831.59;5052730;28;20045;-64
2022/04/24 11:23:26;;;;;;;1.88;0.82;;;;;;;8.05;94.23;95834.53;5067377;28;20051;-64
2022/04/24 11:25:55;;;;;;;2.10;0.90;;;;;;;8.14;94.78;95838.28;5066701;28;20040;-64
2022/04/24 11:28:41;;;;;;;4.38;1.48;;;;;;;8.25;94.64;95832.88;5064616;28;20090;-64
2022/04/24 11:31:18;;;;;;;4.38;2.75;;;;;;;8.17;92.60;95843.13;5055540;28;20051;-64
2022/04/24 11:34:00;;;;;;;4.60;2.63;;;;;;;8.10;93.36;95837.19;5056895;28;20044;-64
2022/04/24 11:36:32;;;;;;;2.33;1.23;;;;;;;8.16;92.93;95846.91;5065384;28;20114;-63
2022/04/24 11:39:01;;;;;;;3.72;2.00;;;;;;;8.32;92.60;95847.66;5057420;28;20049;-63
2022/04/24 11:41:29;;;;;;;4.63;2.53;;;;;;;8.36;91.84;95856.00;5061530;28;20512;-63
2022/04/24 11:50:13;;;;;;;2.15;1.13;;;;;;;8.39;91.01;95852.75;5063746;28;20089;-63
2022/04/24 11:50:14;;;;;;;4.63;2.58;;;;;;;8.62;90.64;95857.84;5060749;28;20060;-63